Terminal Aerodrome Forecast
Issued by NWS

Home | Current Version | Previous Version | Text Only | Print | Product List | Glossary On
Versions: 1 2 3 4 5 6 7 8 9 10 11 12 13
657
FTAK31 PAJN 251120
TAFAGY
TAF
PAGY 251120Z 2512/2612 03003KT P6SM VCSH BKN080 BKN120
     FM251800 21007KT P6SM -SHRA OVC050
     FM252300 21014KT P6SM -SHRA OVC050
     FM260400 21010KT P6SM VCSH SCT050 BKN100
      AMD LTD TO CLD VIS AND WIND=

USA.gov is the U.S. government's official web portal to all federal, state and local government web resources and services.